Terminal Aerodrome Forecast
Issued by NWS

Home | Current Version | Previous Version | Text Only | Print | Product List | Glossary Off
Versions: 1 2 3 4 5 6 7 8 9 10 11 12 13 14 15 16 17 18 19 20 21 22

000
FTUS43 KABR 251500 AAA
TAFATY
TAF AMD
KATY 251546Z 2516/2612 35007KT P6SM OVC015
     FM251800 VRB05KT P6SM OVC010
     FM260300 20008KT P6SM OVC015=

USA.gov is the U.S. government's official web portal to all federal, state and local government web resources and services.